Time;durP1;ratioP1;P1;durP2;ratioP2;P2;SDS_P1;SDS_P2;PMS_P1;PMS_P2;Temp;Humidity;BMP_temperature;BMP_pressure;BME280_temperature;BME280_humidity;BME280_pressure;Samples;Min_cycle;Max_cycle;Signal;HPM_P1;HPM_P2
2022/07/30 00:02:50;;;;;;;;;;;24.90;33.40;;;22.89;35.43;101182.84;12250547;19;20324;-90
2022/07/30 00:06:52;;;;;;;;;;;25.00;33.60;;;22.80;35.40;101170.47;12249363;19;19911;-91
2022/07/30 00:10:53;;;;;;;;;;;24.70;33.50;;;22.74;35.21;101186.06;12248515;19;19935;-91
2022/07/30 00:14:55;;;;;;;;;;;24.70;33.70;;;22.44;35.67;101141.16;12248191;19;19915;-91
2022/07/30 00:18:57;;;;;;;;;;;24.60;33.60;;;22.68;35.47;101183.16;12245476;19;20266;-92
2022/07/30 00:23:01;;;;;;;;;;;24.80;33.70;;;22.50;35.57;101162.72;12247348;19;19919;-91
2022/07/30 00:27:03;;;;;;;;;;;24.50;33.70;;;22.32;35.56;101132.59;12247786;19;19983;-90
2022/07/30 00:31:05;;;;;;;;;;;24.50;33.80;;;22.55;35.49;101175.56;12248650;19;19923;-91
2022/07/30 00:35:08;;;;;;;;;;;24.40;33.80;;;22.05;35.34;101090.88;12248612;19;19925;-90
2022/07/30 00:39:09;;;;;;;;;;;24.40;33.80;;;22.61;35.90;101187.44;12246789;19;19928;-91
2022/07/30 00:43:16;;;;;;;;;;;24.40;33.90;;;22.67;35.86;101198.31;12250404;19;19919;-91
2022/07/30 00:47:18;;;;;;;;;;;24.40;33.80;;;22.56;35.82;101179.91;12247793;19;19952;-91
2022/07/30 00:51:19;;;;;;;;;;;24.30;33.90;;;22.02;35.74;101092.00;12253344;19;20303;-91
2022/07/30 00:55:21;;;;;;;;;;;24.40;33.90;;;22.45;35.93;101164.16;12262026;19;19917;-91
2022/07/30 00:59:22;;;;;;;;;;;24.20;33.90;;;22.48;36.06;101179.81;12258758;19;19932;-91
2022/07/30 01:03:24;;;;;;;;;;;24.30;34.00;;;22.57;35.72;101188.72;12260079;19;19919;-91
2022/07/30 01:07:26;;;;;;;;;;;24.60;34.10;;;22.41;35.92;101155.63;12260121;19;19919;-91
2022/07/30 01:11:32;;;;;;;;;;;24.30;33.90;;;22.41;35.74;101160.94;12255989;19;19923;-90
2022/07/30 01:15:34;;;;;;;;;;;24.20;33.90;;;22.53;35.71;101172.22;12260347;19;19927;-92
2022/07/30 01:19:54;;;;;;;;;;;24.20;34.00;;;22.49;35.71;101160.19;12257203;19;20329;-91
2022/07/30 01:24:01;;;;;;;;;;;24.20;34.10;;;22.28;36.07;101147.19;12262574;19;19944;-91
2022/07/30 01:28:11;;;;;;;;;;;24.30;34.10;;;22.52;36.18;101173.19;12258158;19;19927;-91
2022/07/30 01:32:13;;;;;;;;;;;24.20;34.00;;;22.41;36.11;101168.91;12261604;19;20271;-90
2022/07/30 01:36:19;;;;;;;;;;;24.20;34.20;;;22.19;35.98;101132.13;12263721;19;19933;-91
2022/07/30 01:40:22;;;;;;;;;;;24.20;34.10;;;22.39;36.04;101160.28;12259393;19;19919;-90
2022/07/30 01:44:26;;;;;;;;;;;24.20;34.10;;;22.39;36.16;101156.78;12262001;19;19915;-91
2022/07/30 01:48:28;;;;;;;;;;;24.10;34.20;;;22.13;35.82;101119.41;12259948;19;19923;-91
2022/07/30 01:52:31;;;;;;;;;;;24.20;34.10;;;22.31;36.39;101157.53;12262098;19;19919;-91
2022/07/30 01:56:34;;;;;;;;;;;24.30;34.20;;;22.30;36.17;101153.19;12258983;19;19918;-91
2022/07/30 02:00:38;;;;;;;;;;;24.10;34.20;;;22.40;36.25;101169.09;12256530;19;19915;-91
2022/07/30 02:04:40;;;;;;;;;;;24.10;34.20;;;22.24;36.31;101145.81;12261629;19;19934;-90
2022/07/30 02:08:47;;;;;;;;;;;24.10;34.30;;;22.19;36.39;101142.75;12257585;19;19982;-91
2022/07/30 02:12:54;;;;;;;;;;;24.10;34.20;;;22.35;36.46;101174.84;12263550;19;20198;-91
2022/07/30 02:17:01;;;;;;;;;;;24.00;34.20;;;22.18;36.36;101159.69;12260407;19;20324;-91
2022/07/30 02:21:07;;;;;;;;;;;24.10;34.20;;;22.03;36.41;101152.19;12256002;19;19934;-90
2022/07/30 02:25:12;;;;;;;;;;;24.00;34.30;;;22.00;36.57;101141.84;12256562;19;20248;-91
2022/07/30 02:29:17;;;;;;;;;;;24.00;34.30;;;21.68;36.54;101114.88;12252797;19;19930;-90
2022/07/30 02:33:23;;;;;;;;;;;23.90;34.40;;;21.96;36.51;101164.44;12257147;19;20317;-90
2022/07/30 02:37:26;;;;;;;;;;;23.80;34.30;;;21.90;36.58;101159.72;12253767;19;20341;-91
2022/07/30 02:41:29;;;;;;;;;;;23.80;34.40;;;21.86;36.55;101153.00;12250843;19;19911;-91
2022/07/30 02:45:32;;;;;;;;;;;23.70;34.30;;;21.56;36.43;101104.44;12253722;19;19990;-92
2022/07/30 02:49:35;;;;;;;;;;;23.70;34.40;;;21.59;36.49;101109.47;12250718;19;19918;-91
2022/07/30 02:53:38;;;;;;;;;;;23.60;34.40;;;21.52;36.74;101097.78;12253066;19;19919;-91
2022/07/30 02:57:41;;;;;;;;;;;23.60;34.50;;;21.41;36.67;101079.34;12251030;19;19934;-91
2022/07/30 03:01:43;;;;;;;;;;;23.80;34.50;;;21.19;36.73;101044.16;12248454;19;20260;-91
2022/07/30 03:05:48;;;;;;;;;;;23.60;34.80;;;21.60;36.90;101127.13;12252730;19;19907;-91
2022/07/30 03:09:51;;;;;;;;;;;23.60;34.60;;;21.16;36.72;101049.75;12249279;19;19959;-92
2022/07/30 03:13:52;;;;;;;;;;;23.60;34.70;;;21.10;36.59;101045.03;12253617;19;19915;-90
2022/07/30 03:17:55;;;;;;;;;;;23.50;34.70;;;21.09;36.92;101048.69;12250451;19;19922;-90
2022/07/30 03:22:01;;;;;;;;;;;23.50;34.80;;;21.23;36.85;101070.44;12250356;19;19918;-91
2022/07/30 03:26:04;;;;;;;;;;;23.50;34.80;;;21.29;36.70;101083.16;12253733;19;19919;-90
2022/07/30 03:30:06;;;;;;;;;;;23.50;34.70;;;21.25;36.85;101084.41;12249932;19;19918;-90
2022/07/30 03:34:09;;;;;;;;;;;23.50;34.80;;;21.33;37.07;101095.13;12253434;19;19915;-90
2022/07/30 03:38:13;;;;;;;;;;;23.50;34.70;;;21.36;36.99;101094.84;12249543;19;20261;-92
2022/07/30 03:42:15;;;;;;;;;;;23.50;34.80;;;21.60;36.90;101135.09;12245733;19;19919;-91
2022/07/30 03:46:17;;;;;;;;;;;23.80;34.80;;;21.30;36.94;101092.78;12248920;19;19923;-91
2022/07/30 03:50:22;;;;;;;;;;;23.70;34.90;;;21.54;36.52;101145.44;12243472;19;19919;-91
2022/07/30 03:54:28;;;;;;;;;;;23.50;34.80;;;21.63;36.79;101166.69;12244574;19;19919;-91
2022/07/30 03:58:53;;;;;;;;;;;23.60;34.90;;;21.55;37.03;101177.22;12243426;19;19917;-91
2022/07/30 04:02:55;;;;;;;;;;;23.40;34.80;;;21.27;37.14;101125.78;12247325;19;19915;-91
2022/07/30 04:07:06;;;;;;;;;;;23.30;34.80;;;21.30;37.20;101151.22;12245708;19;20334;-91
2022/07/30 04:11:07;;;;;;;;;;;23.30;34.90;;;21.24;37.06;101152.63;12247812;19;19936;-92
2022/07/30 04:15:15;;;;;;;;;;;23.20;34.80;;;21.31;37.20;101180.31;12247375;19;19923;-90
2022/07/30 04:19:36;;;;;;;;;;;23.20;35.00;;;21.27;37.04;101176.25;12244611;19;19919;-91
2022/07/30 04:23:39;;;;;;;;;;;23.10;34.90;;;21.33;37.28;101183.69;12245266;19;19911;-92
2022/07/30 04:27:41;;;;;;;;;;;23.10;35.10;;;21.21;37.24;101169.69;12251360;19;19911;-91
2022/07/30 04:31:43;;;;;;;;;;;23.10;35.10;;;21.28;37.45;101182.41;12257298;19;19915;-90
2022/07/30 04:36:10;;;;;;;;;;;23.10;35.10;;;21.29;37.54;101192.06;12258794;19;19911;-91
2022/07/30 04:40:12;;;;;;;;;;;23.10;35.10;;;21.29;37.49;101192.06;12252569;19;20253;-91
2022/07/30 04:44:14;;;;;;;;;;;23.10;35.10;;;21.31;37.29;101198.91;12257710;19;19907;-90
2022/07/30 04:48:27;;;;;;;;;;;23.00;35.10;;;21.26;37.15;101179.91;12255156;19;20310;-92
2022/07/30 04:52:59;;;;;;;;;;;23.10;35.30;;;21.19;37.60;101170.81;12256951;19;19989;-91
2022/07/30 04:57:04;;;;;;;;;;;23.10;35.30;;;21.40;37.18;101197.25;12260759;19;19923;-90
2022/07/30 05:01:07;;;;;;;;;;;23.10;35.40;;;21.46;37.48;101196.66;12259083;19;19926;-91
2022/07/30 05:05:11;;;;;;;;;;;23.20;35.30;;;21.55;37.30;101214.41;12261230;19;20311;-90
2022/07/30 05:09:14;;;;;;;;;;;23.20;35.30;;;21.02;37.41;101113.13;12250523;19;19919;-87
2022/07/30 05:13:16;;;;;;;;;;;23.40;35.40;;;21.55;37.53;101197.59;12255541;19;20167;-88
2022/07/30 05:17:18;;;;;;;;;;;23.20;35.30;;;21.06;37.69;101118.00;12251213;19;19926;-87
2022/07/30 05:21:20;;;;;;;;;;;23.20;35.40;;;21.49;37.39;101188.38;12253210;19;20001;-88
2022/07/30 05:25:23;;;;;;;;;;;23.30;35.40;;;21.39;37.47;101169.00;12255787;19;19918;-88
2022/07/30 05:29:27;;;;;;;;;;;23.30;35.50;;;21.54;37.46;101187.97;12247498;19;19923;-87
2022/07/30 05:33:34;;;;;;;;;;;23.30;35.50;;;21.55;37.66;101173.69;12252097;19;19974;-88
2022/07/30 05:37:36;;;;;;;;;;;23.30;35.50;;;21.55;37.43;101184.31;12248891;19;19943;-87
2022/07/30 05:41:37;;;;;;;;;;;23.40;35.60;;;21.57;37.79;101190.34;12250750;19;19936;-87
2022/07/30 05:45:46;;;;;;;;;;;23.40;35.60;;;21.55;37.64;101182.53;12252711;19;19933;-88
2022/07/30 05:49:48;;;;;;;;;;;23.40;35.60;;;21.54;37.67;101180.81;12251151;19;19919;-89
2022/07/30 05:53:50;;;;;;;;;;;23.40;35.70;;;21.41;37.95;101165.22;12249976;19;20062;-90
2022/07/30 05:58:09;;;;;;;;;;;23.80;35.90;;;21.73;37.78;101203.00;12248640;19;19935;-88
2022/07/30 06:02:11;;;;;;;;;;;23.50;35.70;;;21.76;37.74;101206.22;12251016;19;19914;-90
2022/07/30 06:06:29;;;;;;;;;;;23.50;35.80;;;21.85;37.70;101215.16;12250765;19;20285;-90
2022/07/30 06:10:32;;;;;;;;;;;23.50;35.60;;;21.76;37.65;101200.06;12247490;19;19922;-90
2022/07/30 06:14:34;;;;;;;;;;;23.60;35.70;;;21.76;37.64;101202.72;12250210;19;20338;-90
2022/07/30 06:18:36;;;;;;;;;;;23.60;35.70;;;21.90;38.09;101222.66;12249376;19;19915;-90
2022/07/30 06:22:45;;;;;;;;;;;23.50;35.70;;;21.88;37.87;101221.00;12248052;19;19925;-89
2022/07/30 06:26:55;;;;;;;;;;;23.50;35.70;;;21.90;38.08;101222.66;12251961;19;19986;-90
2022/07/30 06:30:56;;;;;;;;;;;23.60;35.80;;;21.94;37.99;101229.38;12252584;19;19911;-89
2022/07/30 06:35:01;;;;;;;;;;;23.60;35.90;;;21.90;38.24;101218.22;12249964;19;19907;-90
2022/07/30 06:39:03;;;;;;;;;;;23.60;35.90;;;21.87;37.89;101219.34;12247816;19;20228;-88
2022/07/30 06:43:20;;;;;;;;;;;23.70;36.00;;;21.90;38.33;101223.53;12252029;19;19930;-90
2022/07/30 06:47:30;;;;;;;;;;;23.70;35.90;;;21.96;38.29;101228.25;12247590;19;19918;-90
2022/07/30 06:51:32;;;;;;;;;;;23.70;35.80;;;21.80;37.90;101207.59;12248604;19;19970;-90
2022/07/30 06:55:36;;;;;;;;;;;23.70;36.00;;;21.92;38.57;101231.34;12246287;19;19927;-90
2022/07/30 06:59:37;;;;;;;;;;;24.00;36.00;;;21.94;38.31;101235.53;12241427;19;19950;-89
2022/07/30 07:03:48;;;;;;;;;;;23.70;35.90;;;22.09;38.57;101252.69;12250581;19;19935;-88
2022/07/30 07:07:49;;;;;;;;;;;23.80;36.00;;;22.07;38.10;101256.50;12248581;19;19907;-88
2022/07/30 07:11:53;;;;;;;;;;;23.70;36.10;;;22.12;38.11;101254.22;12251956;19;20254;-89
2022/07/30 07:15:56;;;;;;;;;;;23.80;36.20;;;22.18;38.54;101252.81;12251846;19;19918;-88
2022/07/30 07:20:00;;;;;;;;;;;23.80;36.30;;;22.14;38.45;101236.28;12249704;19;19987;-88
2022/07/30 07:24:02;;;;;;;;;;;23.90;36.10;;;22.15;38.05;101227.34;12250509;19;19915;-88
2022/07/30 07:28:22;;;;;;;;;;;23.90;36.10;;;22.34;38.23;101260.19;12248877;19;19914;-89
2022/07/30 07:32:24;;;;;;;;;;;24.00;36.20;;;22.33;38.50;101238.03;12252027;19;19927;-88
2022/07/30 07:36:25;;;;;;;;;;;24.00;36.10;;;22.04;38.51;101177.81;12251227;19;20296;-88
2022/07/30 07:40:27;;;;;;;;;;;24.10;36.20;;;22.44;38.47;101242.31;12249244;19;19921;-88
2022/07/30 07:44:31;;;;;;;;;;;24.10;36.30;;;22.39;38.65;101225.97;12250870;19;19932;-89
2022/07/30 07:48:32;;;;;;;;;;;24.20;36.60;;;22.52;38.50;101240.59;12248318;19;19915;-89
2022/07/30 07:52:54;;;;;;;;;;;24.10;36.20;;;22.62;38.30;101245.00;12249918;19;20290;-88
2022/07/30 07:56:56;;;;;;;;;;;24.30;36.20;;;22.77;38.50;101258.66;12249584;19;19934;-88
2022/07/30 08:01:04;;;;;;;;;;;24.40;36.30;;;22.93;38.35;101256.16;12247523;19;19919;-88
2022/07/30 08:05:23;;;;;;;;;;;24.50;36.30;;;23.05;38.44;101256.78;12261563;19;19970;-90
2022/07/30 08:09:48;;;;;;;;;;;24.70;36.20;;;23.06;38.50;101250.44;12253722;19;19935;-87
2022/07/30 08:14:01;;;;;;;;;;;24.70;36.20;;;23.09;38.62;101244.84;12260177;19;20329;-88
2022/07/30 08:18:31;;;;;;;;;;;24.80;36.30;;;23.25;38.54;101257.44;12252736;19;19950;-89
2022/07/30 08:22:53;;;;;;;;;;;24.80;36.20;;;23.36;38.75;101252.72;12257170;19;19918;-88
2022/07/30 08:26:55;;;;;;;;;;;25.00;36.30;;;23.54;38.50;101236.66;12256712;19;19926;-87
2022/07/30 08:30:57;;;;;;;;;;;25.10;36.30;;;23.80;38.47;101252.69;12258584;19;20281;-87
2022/07/30 08:34:59;;;;;;;;;;;25.30;36.30;;;23.40;38.46;101165.25;12246449;19;19922;-87
2022/07/30 08:39:01;;;;;;;;;;;25.40;36.30;;;23.94;38.51;101239.75;12255787;19;19914;-87
2022/07/30 08:43:05;;;;;;;;;;;25.50;36.20;;;24.03;38.17;101252.13;12252192;19;19923;-87
2022/07/30 08:47:08;;;;;;;;;;;25.60;36.30;;;23.83;38.14;101217.69;12258314;19;19923;-87
2022/07/30 08:51:28;;;;;;;;;;;26.00;36.30;;;24.10;38.19;101247.81;12257155;19;19923;-87
2022/07/30 08:55:55;;;;;;;;;;;25.70;36.10;;;24.15;38.23;101242.84;12257322;19;19926;-87
2022/07/30 09:00:00;;;;;;;;;;;25.80;36.20;;;24.17;38.06;101248.00;12253768;19;19919;-87
2022/07/30 09:04:02;;;;;;;;;;;25.90;36.60;;;24.31;38.57;101254.59;12256811;19;19918;-87
2022/07/30 09:08:04;;;;;;;;;;;25.90;36.20;;;24.32;38.48;101253.59;12255542;19;19966;-87
2022/07/30 09:12:35;;;;;;;;;;;26.00;36.30;;;24.43;38.65;101263.97;12257060;19;19926;-87
2022/07/30 09:16:38;;;;;;;;;;;26.00;36.50;;;24.41;38.02;101255.25;12256832;19;20384;-87
2022/07/30 09:20:40;;;;;;;;;;;26.10;36.10;;;24.43;38.27;101247.94;12251613;19;19938;-87
2022/07/30 09:24:43;;;;;;;;;;;26.10;36.40;;;24.58;38.19;101257.03;12257083;19;20597;-87
2022/07/30 09:29:18;;;;;;;;;;;26.30;36.20;;;24.64;38.12;101248.34;12253081;19;20404;-87
2022/07/30 09:33:42;;;;;;;;;;;26.20;36.50;;;24.69;38.37;101255.88;12257398;19;19923;-87
2022/07/30 09:38:03;;;;;;;;;;;26.30;36.10;;;24.55;38.22;101224.44;12254030;19;20238;-87
2022/07/30 09:42:27;;;;;;;;;;;26.40;36.10;;;24.70;38.51;101252.19;12252259;19;19914;-88
2022/07/30 09:46:51;;;;;;;;;;;26.50;36.90;;;24.64;38.38;101251.03;12255233;19;19962;-88
2022/07/30 09:51:01;;;;;;;;;;;26.40;36.10;;;24.65;38.41;101241.16;12256749;19;20608;-87
2022/07/30 09:55:04;;;;;;;;;;;26.50;36.10;;;24.81;38.29;101256.41;12256623;19;19943;-87
2022/07/30 09:59:06;;;;;;;;;;;26.40;36.10;;;24.84;38.33;101243.53;12254362;19;20354;-87
2022/07/30 10:03:14;;;;;;;;;;;26.50;36.20;;;24.98;38.44;101255.44;12255294;19;19974;-87
2022/07/30 10:07:34;;;;;;;;;;;26.50;36.20;;;24.86;38.46;101228.19;12257846;19;19926;-87
2022/07/30 10:11:37;;;;;;;;;;;26.60;36.20;;;24.95;38.16;101253.06;12253105;19;19911;-87
2022/07/30 10:15:39;;;;;;;;;;;26.60;36.20;;;24.72;38.20;101208.31;12254867;19;19928;-87
2022/07/30 10:19:40;;;;;;;;;;;26.60;36.00;;;24.73;38.52;101218.00;12250972;19;19915;-88
2022/07/30 10:24:00;;;;;;;;;;;26.60;36.00;;;24.94;38.49;101265.59;12252962;19;19919;-87
2022/07/30 10:28:29;;;;;;;;;;;26.60;36.00;;;24.93;38.64;101263.09;12251467;19;19953;-87
2022/07/30 10:32:31;;;;;;;;;;;26.70;36.10;;;24.94;38.45;101262.91;12258364;19;19940;-88
2022/07/30 10:36:34;;;;;;;;;;;26.70;36.20;;;24.94;38.24;101264.75;12256918;19;19915;-87
2022/07/30 10:40:39;;;;;;;;;;;26.60;36.00;;;24.93;38.30;101255.91;12255471;19;20298;-88
2022/07/30 10:44:47;;;;;;;;;;;26.60;36.00;;;25.00;38.47;101269.44;12257672;19;19933;-87
2022/07/30 10:48:49;;;;;;;;;;;26.60;35.90;;;24.90;38.05;101261.59;12255509;19;20249;-87
2022/07/30 10:52:53;;;;;;;;;;;26.60;36.30;;;24.91;38.41;101257.06;12258660;19;19927;-88
2022/07/30 10:57:19;;;;;;;;;;;26.60;36.00;;;24.92;38.10;101253.41;12256034;19;19966;-88
2022/07/30 11:01:20;;;;;;;;;;;26.60;36.10;;;25.07;38.21;101265.09;12255469;19;20318;-87
2022/07/30 11:05:23;;;;;;;;;;;26.60;36.00;;;24.86;38.48;101211.31;12260394;19;19923;-87
2022/07/30 11:09:37;;;;;;;;;;;26.70;36.10;;;25.21;38.61;101257.47;12257804;19;19935;-87
2022/07/30 11:13:59;;;;;;;;;;;26.70;36.20;;;25.27;38.26;101262.94;12258854;19;20312;-87
2022/07/30 11:18:07;;;;;;;;;;;26.80;36.10;;;25.27;38.56;101257.59;12255729;19;19919;-87
2022/07/30 11:22:21;;;;;;;;;;;27.00;36.20;;;25.41;38.29;101258.78;12252417;19;19915;-87
2022/07/30 11:26:38;;;;;;;;;;;26.90;36.20;;;25.53;38.07;101261.94;12254978;19;19919;-86
2022/07/30 11:30:39;;;;;;;;;;;27.00;36.20;;;25.56;38.10;101249.06;12249551;19;19923;-87
2022/07/30 11:34:41;;;;;;;;;;;27.10;36.20;;;25.66;38.21;101248.88;12253819;19;19922;-87
2022/07/30 11:38:58;;;;;;;;;;;27.20;36.20;;;25.73;38.20;101246.34;12252335;19;19957;-87
2022/07/30 11:43:14;;;;;;;;;;;27.30;36.20;;;25.86;38.38;101254.69;12254162;19;19926;-87
2022/07/30 11:47:16;;;;;;;;;;;27.30;36.10;;;25.87;38.13;101243.00;12247394;19;19944;-87
2022/07/30 11:51:18;;;;;;;;;;;27.50;36.20;;;25.86;37.96;101238.66;12254365;19;19966;-87
2022/07/30 11:55:29;;;;;;;;;;;27.50;36.00;;;25.99;38.07;101260.34;12248749;19;19961;-86
2022/07/30 11:59:30;;;;;;;;;;;27.60;36.00;;;25.72;38.12;101196.53;12246543;19;20589;-87
2022/07/30 12:03:32;;;;;;;;;;;27.80;36.10;;;26.07;38.16;101248.78;12247184;19;19926;-87
2022/07/30 12:07:34;;;;;;;;;;;27.60;36.00;;;26.09;38.15;101241.41;12246196;19;19923;-88
2022/07/30 12:11:36;;;;;;;;;;;27.70;36.00;;;26.25;38.18;101245.88;12241705;19;20281;-88
2022/07/30 12:15:41;;;;;;;;;;;27.70;36.10;;;26.35;38.00;101249.13;12243320;19;19948;-87
2022/07/30 12:19:47;;;;;;;;;;;27.80;36.00;;;26.47;38.09;101252.28;12247116;19;20341;-88
2022/07/30 12:24:02;;;;;;;;;;;27.90;36.00;;;26.54;38.15;101255.94;12248615;19;19919;-86
2022/07/30 12:28:04;;;;;;;;;;;28.00;35.90;;;26.28;37.74;101202.66;12235538;19;20333;-87
2022/07/30 12:32:06;;;;;;;;;;;28.10;36.00;;;26.54;37.85;101237.16;12248249;19;19923;-86
2022/07/30 12:36:09;;;;;;;;;;;28.10;35.90;;;26.68;38.10;101244.47;12242668;19;19927;-86
2022/07/30 12:40:13;;;;;;;;;;;28.30;36.00;;;26.78;37.88;101240.72;12243864;19;19983;-87
2022/07/30 12:44:39;;;;;;;;;;;28.30;35.90;;;26.70;37.94;101214.81;12246215;19;19919;-86
2022/07/30 12:48:57;;;;;;;;;;;28.40;35.80;;;26.85;37.65;101241.69;12241907;19;19940;-87
2022/07/30 12:52:58;;;;;;;;;;;28.40;35.70;;;26.90;37.81;101239.28;12256399;19;19931;-86
2022/07/30 12:57:03;;;;;;;;;;;28.50;35.70;;;26.97;37.78;101253.63;12256484;19;20257;-86
2022/07/30 13:01:04;;;;;;;;;;;28.60;35.70;;;26.61;37.79;101181.06;12255348;19;19922;-86
2022/07/30 13:05:06;;;;;;;;;;;28.60;35.70;;;26.66;37.76;101176.00;12256161;19;19986;-86
2022/07/30 13:09:19;;;;;;;;;;;28.60;35.60;;;26.98;37.71;101230.31;12250310;19;19914;-86
2022/07/30 13:13:20;;;;;;;;;;;28.60;35.60;;;26.64;37.93;101165.44;12256041;19;19914;-87
2022/07/30 13:17:22;;;;;;;;;;;28.60;35.60;;;26.78;37.73;101187.94;12255305;19;20065;-89
2022/07/30 13:21:23;;;;;;;;;;;28.70;35.00;;;26.80;37.68;101183.25;12260362;19;19919;-88
2022/07/30 13:25:26;;;;;;;;;;;28.70;35.30;;;26.88;37.17;101187.72;12268064;19;19915;-89
2022/07/30 13:29:28;;;;;;;;;;;28.70;35.40;;;26.79;37.44;101167.31;12262216;19;19934;-87
2022/07/30 13:33:30;;;;;;;;;;;28.80;35.50;;;27.13;37.66;101217.81;12266511;19;19935;-87
2022/07/30 13:37:31;;;;;;;;;;;28.90;35.50;;;26.91;37.53;101176.63;12262229;19;19986;-88
2022/07/30 13:41:34;;;;;;;;;;;28.90;35.40;;;27.25;37.40;101220.94;12264098;19;20309;-88
2022/07/30 13:45:36;;;;;;;;;;;28.90;35.40;;;27.49;37.43;101249.34;12261242;19;19923;-88
2022/07/30 13:49:42;;;;;;;;;;;29.00;35.40;;;27.12;37.21;101187.47;12258134;19;19927;-88
2022/07/30 13:53:44;;;;;;;;;;;29.10;35.40;;;27.24;36.98;101182.53;12261170;19;19948;-88
2022/07/30 13:57:45;;;;;;;;;;;29.10;35.10;;;27.26;37.19;101185.03;12261889;19;19911;-88
2022/07/30 14:01:47;;;;;;;;;;;29.10;35.10;;;27.30;37.21;101160.34;12257979;19;19922;-88
2022/07/30 14:05:49;;;;;;;;;;;29.30;35.30;;;27.62;37.25;101184.31;12265633;19;19914;-88
2022/07/30 14:09:50;;;;;;;;;;;29.40;35.20;;;27.62;36.91;101174.41;12257130;19;20060;-89
2022/07/30 14:13:51;;;;;;;;;;;29.40;35.30;;;27.86;36.80;101193.94;12258369;19;20277;-89
2022/07/30 14:17:53;;;;;;;;;;;29.50;35.10;;;28.01;36.51;101209.03;12257976;19;19923;-87
2022/07/30 14:21:54;;;;;;;;;;;29.60;35.20;;;28.14;36.53;101235.22;12257767;19;19919;-87
2022/07/30 14:25:56;;;;;;;;;;;29.70;35.20;;;27.69;36.55;101163.78;12262656;19;19915;-87
2022/07/30 14:29:57;;;;;;;;;;;29.70;34.70;;;27.99;36.92;101213.75;12261427;19;19927;-88
2022/07/30 14:33:59;;;;;;;;;;;29.60;34.80;;;28.19;36.68;101222.06;12266162;19;19915;-87
2022/07/30 14:38:02;;;;;;;;;;;29.70;34.80;;;28.29;36.83;101218.22;12263521;19;19929;-86
2022/07/30 14:42:07;;;;;;;;;;;29.70;34.70;;;28.22;36.41;101202.88;12262206;19;21860;-88
2022/07/30 14:46:08;;;;;;;;;;;29.80;34.80;;;28.27;36.71;101188.84;12263557;19;19939;-87
2022/07/30 14:50:09;;;;;;;;;;;29.90;34.50;;;28.18;36.37;101160.47;12260327;19;19907;-87
2022/07/30 14:54:11;;;;;;;;;;;30.00;34.60;;;28.22;36.30;101176.03;12262763;19;20250;-88
2022/07/30 14:58:13;;;;;;;;;;;30.00;34.50;;;28.63;36.44;101225.66;12260845;19;19918;-86
2022/07/30 15:02:14;;;;;;;;;;;30.10;34.50;;;28.40;36.51;101188.19;12251280;19;20636;-86
2022/07/30 15:06:16;;;;;;;;;;;30.10;34.60;;;28.40;36.04;101185.50;12251225;19;19918;-86
2022/07/30 15:10:17;;;;;;;;;;;30.20;34.40;;;28.44;35.68;101216.38;12251370;19;19942;-86
2022/07/30 15:14:19;;;;;;;;;;;30.10;34.20;;;28.20;35.84;101183.44;12253533;19;20401;-87
2022/07/30 15:18:20;;;;;;;;;;;30.10;34.00;;;27.89;36.13;101151.44;12251979;19;19922;-86
2022/07/30 15:22:21;;;;;;;;;;;30.00;33.70;;;28.15;36.17;101180.47;12253376;19;20417;-86
2022/07/30 15:26:23;;;;;;;;;;;30.00;34.20;;;28.35;35.49;101193.28;12255146;19;19911;-86
2022/07/30 15:30:24;;;;;;;;;;;30.00;34.20;;;28.52;35.39;101213.56;12251278;19;19923;-85
2022/07/30 15:34:26;;;;;;;;;;;30.00;34.40;;;28.49;35.67;101208.56;12255555;19;19915;-85
2022/07/30 15:38:27;;;;;;;;;;;30.10;34.00;;;28.41;35.50;101171.06;12252457;19;19922;-86
2022/07/30 15:42:29;;;;;;;;;;;30.10;34.00;;;28.76;35.75;101214.19;12252312;19;19918;-86
2022/07/30 15:46:31;;;;;;;;;;;30.20;34.40;;;28.54;35.59;101171.19;12254313;19;19918;-85
2022/07/30 15:50:32;;;;;;;;;;;30.20;33.80;;;28.62;35.58;101189.88;12247137;19;19919;-85
2022/07/30 15:54:34;;;;;;;;;;;30.50;34.20;;;28.80;35.23;101218.16;12249527;19;19935;-86
2022/07/30 15:58:35;;;;;;;;;;;30.30;34.10;;;28.71;35.32;101197.84;12247670;19;19942;-85
2022/07/30 16:02:37;;;;;;;;;;;30.20;33.90;;;28.74;35.46;101205.50;12246015;19;20234;-86
2022/07/30 16:06:40;;;;;;;;;;;30.20;34.10;;;28.70;35.29;101194.28;12249234;19;19926;-85
2022/07/30 16:10:41;;;;;;;;;;;30.30;34.00;;;28.79;35.23;101206.59;12244522;19;19947;-84
2022/07/30 16:14:43;;;;;;;;;;;30.30;34.30;;;28.56;35.32;101166.47;12251699;19;19922;-85
2022/07/30 16:18:44;;;;;;;;;;;30.30;34.30;;;28.45;35.62;101151.69;12247256;19;20017;-85
2022/07/30 16:22:46;;;;;;;;;;;30.30;34.20;;;28.46;35.56;101152.50;12246738;19;19933;-86
2022/07/30 16:26:47;;;;;;;;;;;30.30;34.20;;;28.34;35.46;101146.78;12262288;19;19930;-85
2022/07/30 16:30:49;;;;;;;;;;;30.30;34.50;;;28.44;35.52;101174.22;12260679;19;19915;-85
2022/07/30 16:34:50;;;;;;;;;;;30.20;34.20;;;28.20;35.32;101140.44;12252821;19;19951;-86
2022/07/30 16:38:52;;;;;;;;;;;30.20;34.30;;;28.26;35.27;101154.16;12252945;19;19923;-86
2022/07/30 16:42:53;;;;;;;;;;;30.10;33.70;;;28.09;35.18;101149.00;12254276;19;19922;-85
2022/07/30 16:46:54;;;;;;;;;;;30.00;34.10;;;28.08;35.39;101160.75;12250673;19;19929;-85
2022/07/30 16:50:55;;;;;;;;;;;30.10;34.20;;;28.23;35.52;101183.03;12254596;19;19923;-85
2022/07/30 16:54:57;;;;;;;;;;;29.90;34.10;;;28.06;35.37;101157.44;12254589;19;19922;-86
2022/07/30 16:58:58;;;;;;;;;;;29.80;34.30;;;28.16;35.65;101179.44;12255356;19;19923;-86
2022/07/30 17:02:59;;;;;;;;;;;29.90;34.20;;;28.12;35.26;101191.59;12253764;19;19915;-86
2022/07/30 17:07:01;;;;;;;;;;;29.80;33.90;;;28.02;35.29;101183.00;12258863;19;19922;-86
2022/07/30 17:11:02;;;;;;;;;;;29.80;34.00;;;28.00;35.26;101187.72;12257024;19;20246;-86
2022/07/30 17:15:04;;;;;;;;;;;29.90;34.20;;;28.09;35.25;101218.00;12256265;19;19925;-88
2022/07/30 17:19:06;;;;;;;;;;;29.70;34.00;;;27.64;35.34;101147.41;12255510;19;19927;-87
2022/07/30 17:23:07;;;;;;;;;;;29.70;34.20;;;28.04;35.51;101223.09;12253153;19;19929;-87
2022/07/30 17:27:09;;;;;;;;;;;29.70;34.20;;;27.99;35.52;101215.59;12259045;19;20258;-86
2022/07/30 17:31:11;;;;;;;;;;;29.60;34.10;;;27.80;35.70;101193.69;12254892;19;19923;-87
2022/07/30 17:35:12;;;;;;;;;;;29.60;34.00;;;27.76;35.39;101191.50;12252456;19;19940;-86
2022/07/30 17:39:14;;;;;;;;;;;29.60;34.00;;;27.95;35.26;101233.09;12249791;19;20568;-88
2022/07/30 17:43:16;;;;;;;;;;;29.50;34.00;;;27.74;35.02;101210.50;12255317;19;20284;-87
2022/07/30 17:47:17;;;;;;;;;;;29.50;34.10;;;27.80;35.44;101236.63;12256095;19;20021;-88
2022/07/30 17:51:19;;;;;;;;;;;29.50;34.10;;;27.56;35.23;101208.19;12257428;19;19911;-87
2022/07/30 17:55:20;;;;;;;;;;;29.40;34.10;;;27.46;35.42;101193.38;12253837;19;20017;-86
2022/07/30 17:59:21;;;;;;;;;;;29.30;34.10;;;27.53;35.71;101223.81;12252520;19;20295;-88
2022/07/30 18:03:24;;;;;;;;;;;29.30;34.00;;;27.58;35.21;101237.53;12252506;19;19919;-88
2022/07/30 18:07:26;;;;;;;;;;;29.20;34.10;;;27.33;35.47;101212.81;12252884;19;19922;-89
2022/07/30 18:11:27;;;;;;;;;;;29.20;34.20;;;27.11;35.33;101195.69;12256700;19;20263;-88
2022/07/30 18:15:29;;;;;;;;;;;29.20;34.30;;;27.40;35.54;101251.28;12255063;19;19919;-89
2022/07/30 18:19:31;;;;;;;;;;;29.10;34.30;;;27.05;35.52;101210.66;12255286;19;20480;-89
2022/07/30 18:23:33;;;;;;;;;;;29.00;34.30;;;26.98;35.52;101209.75;12254663;19;19911;-88